Time;durP1;ratioP1;P1;durP2;ratioP2;P2;SDS_P1;SDS_P2;PMS_P1;PMS_P2;Temp;Humidity;BMP_temperature;BMP_pressure;BME280_temperature;BME280_humidity;BME280_pressure;Samples;Min_cycle;Max_cycle;Signal;HPM_P1;HPM_P2
2021/04/02 00:01:47;;;;;;;14.20;7.07;;;;;;;10.82;66.81;101384.53;5012494;28;20030;-68
2021/04/02 00:04:15;;;;;;;12.52;6.80;;;;;;;10.81;66.51;101388.03;5011750;28;20050;-68
2021/04/02 00:06:42;;;;;;;15.05;7.65;;;;;;;10.84;66.92;101383.69;5012273;28;20033;-68
2021/04/02 00:09:11;;;;;;;14.25;7.38;;;;;;;10.87;66.99;101383.78;5011485;28;20096;-68
2021/04/02 00:11:38;;;;;;;15.70;9.10;;;;;;;10.85;67.23;101384.59;5011638;28;20045;-68
2021/04/02 00:14:05;;;;;;;15.02;7.38;;;;;;;10.87;67.56;101380.25;5011394;28;20041;-68
2021/04/02 00:16:32;;;;;;;12.70;7.93;;;;;;;10.87;67.37;101381.13;5011811;28;20096;-68
2021/04/02 00:18:59;;;;;;;11.98;6.70;;;;;;;10.83;67.07;101383.69;5011397;28;20042;-68
2021/04/02 00:21:27;;;;;;;15.52;8.65;;;;;;;10.83;67.39;101381.91;5011975;28;20044;-68
2021/04/02 00:23:54;;;;;;;13.38;6.80;;;;;;;10.79;67.57;101380.03;5012037;28;20050;-68
2021/04/02 00:26:23;;;;;;;14.48;6.78;;;;;;;10.82;67.19;101377.50;5011643;28;20034;-68
2021/04/02 00:28:51;;;;;;;14.15;7.20;;;;;;;10.80;67.11;101379.19;5011518;28;20034;-68
2021/04/02 00:31:18;;;;;;;11.70;7.25;;;;;;;10.84;66.88;101382.78;5010689;28;20056;-68
2021/04/02 00:33:45;;;;;;;16.13;6.80;;;;;;;10.80;67.33;101387.13;5011831;28;20044;-68
2021/04/02 00:36:12;;;;;;;13.45;7.00;;;;;;;10.77;66.97;101389.66;5011772;28;20095;-68
2021/04/02 00:38:40;;;;;;;11.52;6.30;;;;;;;10.76;67.32;101385.28;5003032;28;20409;-68
2021/04/02 00:41:10;;;;;;;14.90;7.05;;;;;;;10.77;67.11;101387.03;5011162;28;20146;-68
2021/04/02 00:43:39;;;;;;;14.95;8.63;;;;;;;10.76;67.84;101388.78;5011605;28;20061;-69
2021/04/02 00:46:07;;;;;;;12.48;7.35;;;;;;;10.71;68.05;101394.81;5006809;28;20050;-68
2021/04/02 00:48:35;;;;;;;12.85;8.57;;;;;;;10.66;68.27;101389.41;5011333;28;20038;-68
2021/04/02 00:51:06;;;;;;;17.40;11.40;;;;;;;10.65;68.53;101390.25;4996698;28;20034;-68
2021/04/02 00:53:35;;;;;;;12.73;8.25;;;;;;;10.64;67.94;101395.50;5011099;28;20045;-68
2021/04/02 00:56:05;;;;;;;13.05;8.20;;;;;;;10.57;68.75;101388.28;5011170;28;20038;-68
2021/04/02 00:58:35;;;;;;;12.13;6.30;;;;;;;10.55;68.38;101390.00;5004086;28;20073;-68
2021/04/02 01:01:03;;;;;;;11.75;7.00;;;;;;;10.64;68.08;101384.94;5004127;28;20072;-68
2021/04/02 01:03:31;;;;;;;13.20;6.95;;;;;;;10.72;67.24;101389.56;4994080;28;20129;-68
2021/04/02 01:06:00;;;;;;;14.55;7.10;;;;;;;10.78;67.76;101386.19;5009763;28;20042;-68
2021/04/02 01:08:29;;;;;;;11.20;6.05;;;;;;;10.78;67.58;101387.06;5004899;28;20037;-68
2021/04/02 01:10:58;;;;;;;14.05;6.78;;;;;;;10.86;67.56;101387.28;4996920;28;20068;-68
2021/04/02 01:13:32;;;;;;;16.30;8.00;;;;;;;10.85;67.93;101395.16;4991350;28;20046;-68
2021/04/02 01:16:02;;;;;;;10.43;6.30;;;;;;;10.88;67.39;101379.38;4991499;28;20073;-68
2021/04/02 01:18:32;;;;;;;10.40;5.97;;;;;;;10.98;67.41;101384.03;4996910;28;20045;-68
2021/04/02 01:21:02;;;;;;;11.52;5.72;;;;;;;11.00;68.46;101395.53;4992400;28;20034;-68
2021/04/02 01:23:34;;;;;;;13.48;5.68;;;;;;;11.00;67.96;101399.06;5006239;28;20042;-68
2021/04/02 01:26:07;;;;;;;11.48;6.35;;;;;;;11.06;67.76;101390.38;5009316;28;20569;-68
2021/04/02 01:28:59;;;;;;;12.27;7.47;;;;;;;11.11;67.85;101388.75;4993537;28;20046;-68
2021/04/02 01:31:27;;;;;;;17.70;5.85;;;;;;;11.05;68.48;101389.50;5010951;28;20379;-68
2021/04/02 01:33:56;;;;;;;11.30;4.97;;;;;;;11.12;68.16;101387.88;5002097;28;20088;-69
2021/04/02 01:36:24;;;;;;;11.45;5.72;;;;;;;11.15;67.67;101394.16;4991152;28;20042;-68
2021/04/02 01:38:52;;;;;;;13.85;6.20;;;;;;;11.10;68.37;101393.13;4998318;28;20069;-68
2021/04/02 01:41:22;;;;;;;13.05;7.15;;;;;;;11.12;68.43;101394.06;5010710;28;20049;-68
2021/04/02 01:43:55;;;;;;;13.00;6.63;;;;;;;11.12;68.12;101382.59;5011277;28;20046;-68
2021/04/02 01:46:24;;;;;;;18.13;7.00;;;;;;;11.13;67.95;101389.69;5004162;28;20037;-68
2021/04/02 01:48:55;;;;;;;11.65;7.03;;;;;;;11.19;68.31;101400.38;4996651;28;20116;-68
2021/04/02 01:51:24;;;;;;;10.32;5.72;;;;;;;11.17;68.64;101400.34;5010868;28;20130;-67
2021/04/02 01:53:53;;;;;;;12.32;5.82;;;;;;;11.09;68.15;101398.41;5000508;28;20046;-68
2021/04/02 01:56:21;;;;;;;12.13;6.70;;;;;;;11.02;68.81;101401.75;4993209;28;20039;-68
2021/04/02 01:58:49;;;;;;;13.88;6.95;;;;;;;10.95;69.03;101405.09;5007252;28;20050;-68
2021/04/02 02:01:19;;;;;;;13.57;7.35;;;;;;;10.90;69.50;101402.31;4991593;28;20400;-67
2021/04/02 02:03:50;;;;;;;11.45;6.90;;;;;;;10.90;68.76;101404.06;5010278;28;20049;-68
2021/04/02 02:06:18;;;;;;;11.45;7.20;;;;;;;10.90;68.96;101404.97;5010801;28;20091;-67
2021/04/02 02:08:45;;;;;;;11.38;6.65;;;;;;;10.93;68.56;101404.16;4992114;28;20038;-68
2021/04/02 02:11:14;;;;;;;13.90;6.93;;;;;;;10.87;68.49;101415.47;5006708;28;20038;-68
2021/04/02 02:13:43;;;;;;;16.60;7.63;;;;;;;10.79;68.70;101407.34;5005911;28;20065;-68
2021/04/02 02:16:13;;;;;;;13.30;8.55;;;;;;;10.91;67.88;101408.50;4990805;28;20048;-68
2021/04/02 02:18:42;;;;;;;13.38;7.53;;;;;;;10.91;68.21;101405.84;4992456;28;20046;-68
2021/04/02 02:21:11;;;;;;;10.18;7.20;;;;;;;10.82;68.66;101411.84;4990797;28;20049;-68
2021/04/02 02:23:41;;;;;;;12.10;7.18;;;;;;;10.81;68.04;101404.75;4963331;28;20483;-68
2021/04/02 02:26:09;;;;;;;14.52;7.72;;;;;;;10.75;68.40;101409.88;4971865;28;20053;-68
2021/04/02 02:28:36;;;;;;;10.52;6.85;;;;;;;10.70;68.63;101409.75;4973843;28;20085;-68
2021/04/02 02:31:05;;;;;;;13.27;7.97;;;;;;;10.75;68.21;101409.88;5010180;28;20041;-67
2021/04/02 02:33:32;;;;;;;11.80;7.25;;;;;;;10.74;68.47;101416.91;5010237;28;20054;-68
2021/04/02 02:36:00;;;;;;;13.88;6.70;;;;;;;10.72;67.99;101404.50;5009793;28;20044;-68
2021/04/02 02:38:28;;;;;;;12.88;5.63;;;;;;;10.74;67.82;101403.72;4992387;28;20046;-68
2021/04/02 02:40:55;;;;;;;12.50;6.00;;;;;;;10.83;67.79;101400.38;4993913;28;20034;-68
2021/04/02 02:43:23;;;;;;;9.50;5.43;;;;;;;10.83;67.25;101410.94;4994317;28;20044;-68
2021/04/02 02:45:50;;;;;;;10.07;6.85;;;;;;;10.89;67.38;101410.22;4994417;28;20034;-68
2021/04/02 02:48:17;;;;;;;12.57;6.97;;;;;;;10.93;67.31;101412.97;5000496;28;20042;-68
2021/04/02 02:50:50;;;;;;;10.40;5.80;;;;;;;10.98;67.01;101416.63;4997990;28;20064;-68
2021/04/02 02:53:22;;;;;;;16.45;9.82;;;;;;;10.99;66.84;101409.59;4993989;28;20814;-68
2021/04/02 02:55:50;;;;;;;12.68;7.50;;;;;;;10.96;67.26;101409.53;4994044;28;20038;-68
2021/04/02 02:58:21;;;;;;;28.20;18.45;;;;;;;10.89;66.85;101418.16;5001908;28;20046;-68
2021/04/02 03:00:49;;;;;;;13.48;5.55;;;;;;;10.79;67.71;101414.38;5011470;28;20042;-68
2021/04/02 03:03:18;;;;;;;14.93;7.28;;;;;;;10.75;67.94;101416.06;4997423;28;20093;-68
2021/04/02 03:05:49;;;;;;;9.88;5.25;;;;;;;10.75;67.78;101421.34;4976608;28;20041;-68
2021/04/02 03:08:20;;;;;;;9.80;5.00;;;;;;;10.75;67.65;101420.44;4993615;28;20050;-69
2021/04/02 03:10:49;;;;;;;9.65;5.57;;;;;;;10.76;67.26;101416.97;4997935;28;20146;-69
2021/04/02 03:13:18;;;;;;;8.50;4.43;;;;;;;10.75;67.29;101417.81;5012980;28;20478;-68
2021/04/02 03:15:45;;;;;;;10.43;5.47;;;;;;;10.69;67.73;101410.63;4994364;28;20050;-68
2021/04/02 03:18:18;;;;;;;10.45;4.97;;;;;;;10.65;67.14;101415.78;4999247;28;20161;-67
2021/04/02 03:20:48;;;;;;;11.52;4.68;;;;;;;10.60;67.73;101415.66;4998952;28;20034;-68
2021/04/02 03:23:18;;;;;;;9.13;5.32;;;;;;;10.60;67.56;101425.31;5009627;28;20026;-68
2021/04/02 03:25:48;;;;;;;11.15;5.18;;;;;;;10.62;68.60;101416.59;5012741;28;20038;-68
2021/04/02 03:28:17;;;;;;;11.70;5.15;;;;;;;10.64;68.53;101427.19;5004791;28;20049;-68
2021/04/02 03:30:45;;;;;;;10.57;5.40;;;;;;;10.65;68.19;101428.97;4988156;28;20035;-68
2021/04/02 03:33:16;;;;;;;10.77;5.50;;;;;;;10.63;68.76;101428.06;5007994;28;20100;-68
2021/04/02 03:35:45;;;;;;;10.27;5.05;;;;;;;10.64;68.66;101429.81;4993318;28;20426;-68
2021/04/02 03:38:14;;;;;;;10.43;4.63;;;;;;;10.65;68.70;101427.22;4993309;28;20061;-68
2021/04/02 03:43:18;;;;;;;10.13;5.18;;;;;;;10.68;68.53;101431.72;4805320;23;20648;-69
2021/04/02 03:46:09;;;;;;;8.57;5.18;;;;;;;10.65;68.43;101434.25;4971723;28;20054;-69
2021/04/02 03:49:02;;;;;;;9.88;6.20;;;;;;;10.59;69.06;101440.28;4968576;28;20164;-69
2021/04/02 03:51:53;;;;;;;9.98;5.00;;;;;;;10.54;68.44;101443.66;4968292;28;20049;-69
2021/04/02 03:54:42;;;;;;;9.07;6.55;;;;;;;10.48;68.64;101440.84;4967302;28;20060;-69
2021/04/02 03:57:31;;;;;;;11.35;5.72;;;;;;;10.51;69.00;101435.63;4967621;28;20188;-69
2021/04/02 04:00:23;;;;;;;14.38;6.20;;;;;;;10.48;69.08;101446.13;4967073;28;22189;-69
2021/04/02 04:03:11;;;;;;;9.95;5.38;;;;;;;10.39;68.96;101450.31;4967679;28;20053;-69
2021/04/02 04:06:00;;;;;;;10.63;6.25;;;;;;;10.35;69.45;101450.19;4967425;28;20104;-69
2021/04/02 04:08:51;;;;;;;9.82;5.85;;;;;;;10.35;68.86;101453.72;4968444;28;20060;-69
2021/04/02 04:11:42;;;;;;;14.93;7.03;;;;;;;10.39;68.93;101458.22;4966222;28;20045;-69
2021/04/02 04:14:31;;;;;;;13.73;7.28;;;;;;;10.37;68.61;101459.03;4966881;28;20046;-69
2021/04/02 04:17:21;;;;;;;10.55;6.90;;;;;;;10.34;68.90;101462.47;4967571;28;20058;-69
2021/04/02 04:20:11;;;;;;;12.65;6.65;;;;;;;10.33;69.22;101484.44;4969911;28;20129;-69
2021/04/02 04:22:58;;;;;;;11.85;7.47;;;;;;;10.35;68.86;101474.81;4966222;28;20054;-69
2021/04/02 04:25:46;;;;;;;10.93;7.03;;;;;;;10.43;68.92;101474.16;4965266;28;20058;-69
2021/04/02 04:28:36;;;;;;;12.60;6.63;;;;;;;10.48;68.84;101477.81;4968302;28;20057;-69
2021/04/02 04:31:24;;;;;;;10.77;6.55;;;;;;;10.58;69.26;101490.38;4965709;28;20045;-69
2021/04/02 04:34:15;;;;;;;11.18;5.35;;;;;;;10.71;69.26;101489.88;4968571;28;20050;-68
2021/04/02 04:37:03;;;;;;;11.27;6.03;;;;;;;10.74;68.93;101488.22;4966564;28;20057;-69
2021/04/02 04:39:53;;;;;;;10.80;6.72;;;;;;;10.81;68.99;101493.66;4966232;28;20062;-69
2021/04/02 04:42:43;;;;;;;10.30;6.10;;;;;;;10.82;69.01;101495.44;4963798;28;21834;-69
2021/04/02 05:15:56;;;;;;;16.67;12.60;;;;;;;12.22;67.46;101516.44;4858922;28;20043;-69
2021/04/02 05:18:47;;;;;;;9.95;6.13;;;;;;;12.33;67.88;101509.63;4945120;28;20132;-69
2021/04/02 05:21:37;;;;;;;11.68;6.63;;;;;;;12.43;68.20;101512.44;4966979;28;20180;-69
2021/04/02 05:24:24;;;;;;;12.88;5.72;;;;;;;12.76;68.58;101511.34;4964569;28;20057;-69
2021/04/02 05:27:12;;;;;;;8.95;5.28;;;;;;;12.90;67.75;101513.38;4966467;28;20058;-70
2021/04/02 05:30:00;;;;;;;10.25;6.03;;;;;;;12.78;66.75;101499.03;4965723;28;20472;-70
2021/04/02 05:32:48;;;;;;;11.43;5.40;;;;;;;12.73;67.25;101515.72;4965172;28;21397;-69
2021/04/02 05:35:36;;;;;;;10.20;5.65;;;;;;;13.18;67.86;101523.63;4964656;28;20094;-70
2021/04/02 05:38:23;;;;;;;10.60;5.75;;;;;;;13.59;67.63;101503.06;4965125;28;21159;-69
2021/04/02 05:41:14;;;;;;;9.38;4.72;;;;;;;13.66;67.27;101501.38;4965527;28;20066;-69
2021/04/02 05:44:03;;;;;;;8.40;4.75;;;;;;;13.89;67.03;101518.56;4962362;28;20091;-70
2021/04/02 05:46:53;;;;;;;11.98;4.22;;;;;;;14.18;67.12;101521.59;4965926;28;20141;-71
2021/04/02 05:49:42;;;;;;;11.20;4.15;;;;;;;14.54;64.83;101513.22;4965655;28;20967;-70
2021/04/02 05:52:30;;;;;;;9.70;4.43;;;;;;;14.73;63.88;101508.13;4964653;28;20064;-69
2021/04/02 05:55:18;;;;;;;10.40;4.90;;;;;;;14.88;64.00;101518.03;4965521;28;20049;-70
2021/04/02 05:58:07;;;;;;;11.38;5.85;;;;;;;14.96;63.22;101519.00;4965577;28;20062;-70
2021/04/02 06:00:55;;;;;;;11.25;6.15;;;;;;;15.16;64.30;101520.06;4965427;28;20140;-70
2021/04/02 06:03:44;;;;;;;14.05;6.40;;;;;;;15.38;63.91;101505.19;4964365;28;20176;-69
2021/04/02 06:06:34;;;;;;;11.05;7.75;;;;;;;15.66;63.49;101500.09;4961221;28;21263;-68
2021/04/02 06:09:22;;;;;;;9.60;5.80;;;;;;;15.83;63.79;101514.41;4963084;28;20173;-69
2021/04/02 06:12:11;;;;;;;12.82;7.82;;;;;;;16.07;63.01;101516.31;4962387;28;20092;-69
2021/04/02 06:14:59;;;;;;;10.57;5.43;;;;;;;16.26;60.54;101499.53;4967689;28;20141;-69
2021/04/02 06:18:01;;;;;;;8.45;4.80;;;;;;;16.42;60.21;101508.47;4967551;28;20073;-69
2021/04/02 06:20:50;;;;;;;8.55;6.00;;;;;;;16.59;60.65;101530.75;4968236;28;20058;-69
2021/04/02 06:23:38;;;;;;;10.73;4.60;;;;;;;16.75;59.72;101519.28;4969541;28;20060;-70
2021/04/02 06:26:25;;;;;;;12.98;6.53;;;;;;;16.89;59.23;101511.31;4972432;28;20157;-70
2021/04/02 06:29:14;;;;;;;8.52;5.38;;;;;;;17.07;58.27;101514.88;4971008;28;20054;-70
2021/04/02 06:32:01;;;;;;;13.23;5.80;;;;;;;17.26;58.35;101521.16;4970289;28;20080;-70
2021/04/02 06:34:50;;;;;;;6.82;4.10;;;;;;;17.47;58.08;101525.56;4970693;28;20191;-70
2021/04/02 06:37:38;;;;;;;10.18;4.93;;;;;;;17.72;57.70;101526.50;4969820;28;20053;-70
2021/04/02 06:40:26;;;;;;;8.02;4.93;;;;;;;17.94;56.96;101522.88;4970197;28;20100;-70
2021/04/02 06:43:14;;;;;;;9.63;5.13;;;;;;;17.93;55.59;101531.78;4969588;28;20895;-70
2021/04/02 06:46:05;;;;;;;8.98;4.90;;;;;;;18.29;55.55;101544.16;4970004;28;21251;-70
2021/04/02 06:48:53;;;;;;;10.60;4.65;;;;;;;18.09;55.03;101546.91;4970531;28;20058;-70
2021/04/02 06:51:41;;;;;;;8.40;4.60;;;;;;;17.42;56.15;101546.94;4969561;28;23147;-70
2021/04/02 06:54:31;;;;;;;9.35;4.32;;;;;;;17.29;55.65;101549.59;4970376;28;20062;-70
2021/04/02 06:57:23;;;;;;;8.18;4.20;;;;;;;17.22;55.66;101551.38;4969183;28;20072;-70
2021/04/02 07:00:12;;;;;;;9.35;4.65;;;;;;;17.41;55.50;101568.28;4968690;28;20050;-70
2021/04/02 07:03:00;;;;;;;12.02;5.43;;;;;;;17.42;55.23;101565.63;4969814;28;20053;-70
2021/04/02 07:05:49;;;;;;;8.30;4.80;;;;;;;17.66;54.42;101561.19;4968388;28;20711;-70
2021/04/02 07:08:39;;;;;;;12.35;6.43;;;;;;;17.70;53.91;101560.31;4967691;28;20069;-70
2021/04/02 07:11:29;;;;;;;9.10;5.38;;;;;;;17.92;54.25;101570.06;4968365;28;20084;-70
2021/04/02 07:14:18;;;;;;;12.27;5.47;;;;;;;18.42;53.19;101566.38;4968109;28;20057;-70
2021/04/02 07:17:06;;;;;;;10.60;5.70;;;;;;;18.36;53.96;101569.09;4970403;28;20209;-70
2021/04/02 07:19:54;;;;;;;11.15;6.10;;;;;;;18.58;53.39;101571.69;4991628;28;20144;-70
2021/04/02 07:22:42;;;;;;;12.48;4.22;;;;;;;18.92;53.57;101571.53;4995112;28;20053;-70
2021/04/02 07:25:30;;;;;;;11.65;6.03;;;;;;;19.14;53.23;101561.59;4993128;28;20060;-71
2021/04/02 07:28:18;;;;;;;18.92;8.13;;;;;;;19.19;52.00;101565.13;4992133;28;20133;-71
2021/04/02 07:31:07;;;;;;;8.45;4.68;;;;;;;19.39;52.14;101571.22;4991829;28;20057;-70
2021/04/02 07:33:56;;;;;;;11.32;4.45;;;;;;;19.42;51.13;101565.84;4991247;28;20054;-71
2021/04/02 07:36:46;;;;;;;8.18;5.00;;;;;;;19.38;51.94;101564.97;4992404;28;20052;-71
2021/04/02 07:39:33;;;;;;;10.32;5.20;;;;;;;19.64;51.43;101571.94;4991665;28;20058;-71
2021/04/02 07:42:21;;;;;;;7.65;4.75;;;;;;;19.70;50.78;101574.56;4991636;28;20049;-71
2021/04/02 07:45:09;;;;;;;10.82;5.00;;;;;;;19.75;50.82;101576.31;4994236;28;20115;-71
2021/04/02 07:48:12;;;;;;;8.20;4.60;;;;;;;20.02;49.89;101571.59;4992285;28;20463;-71
2021/04/02 07:51:04;;;;;;;8.15;4.30;;;;;;;20.24;49.83;101567.75;4990279;28;20050;-71
2021/04/02 07:53:51;;;;;;;9.30;4.85;;;;;;;20.36;49.82;101575.69;4985853;28;20072;-70
2021/04/02 07:56:38;;;;;;;8.70;3.80;;;;;;;20.52;49.74;101569.25;4988745;28;20061;-71
2021/04/02 07:59:46;;;;;;;10.13;5.97;;;;;;;20.69;48.71;101553.81;4993032;28;20054;-70
2021/04/02 08:02:33;;;;;;;8.32;5.13;;;;;;;20.76;49.47;101557.31;4991488;28;20057;-71
2021/04/02 08:05:22;;;;;;;8.02;4.63;;;;;;;20.95;49.20;101563.31;4992561;28;20046;-71
2021/04/02 08:08:14;;;;;;;7.03;3.80;;;;;;;21.03;49.06;101564.09;4982407;28;20049;-71
2021/04/02 08:11:06;;;;;;;5.35;3.83;;;;;;;21.12;49.07;101565.75;4991960;28;20489;-71
2021/04/02 08:13:56;;;;;;;7.78;4.10;;;;;;;21.00;48.90;101564.16;4986190;28;20050;-71
2021/04/02 08:16:46;;;;;;;7.72;3.90;;;;;;;21.16;48.04;101575.56;4984539;28;20053;-72
2021/04/02 08:19:35;;;;;;;7.05;4.57;;;;;;;21.21;48.08;101579.97;4989684;28;20123;-71
2021/04/02 08:22:26;;;;;;;9.27;4.63;;;;;;;21.25;47.65;101568.28;4991266;28;20060;-71
2021/04/02 08:25:16;;;;;;;13.32;7.43;;;;;;;21.42;48.31;101576.94;4981690;28;20107;-71
2021/04/02 08:28:03;;;;;;;13.25;7.38;;;;;;;21.12;48.33;101577.41;4975384;28;20490;-71
2021/04/02 08:30:52;;;;;;;7.15;4.05;;;;;;;21.31;48.47;101580.72;4990143;28;20057;-71
2021/04/02 08:33:40;;;;;;;6.15;3.90;;;;;;;21.38;48.08;101568.97;4967928;28;20605;-71
2021/04/02 08:36:29;;;;;;;8.63;4.55;;;;;;;21.65;48.46;101579.28;4946257;28;20073;-71
2021/04/02 08:39:22;;;;;;;6.47;4.20;;;;;;;21.64;47.40;101585.56;4954456;28;20046;-71
2021/04/02 08:42:12;;;;;;;8.73;5.03;;;;;;;21.70;47.91;101581.88;4990058;28;20060;-71
2021/04/02 08:50:48;;;;;;;14.95;8.25;;;;;;;21.91;46.94;101570.75;5066110;27;20442;-70
2021/04/02 08:53:15;;;;;;;9.80;4.68;;;;;;;21.87;47.24;101566.31;5065850;28;20098;-70
2021/04/02 08:55:44;;;;;;;10.27;4.72;;;;;;;21.98;47.13;101572.44;5067139;28;20040;-70
2021/04/02 08:58:11;;;;;;;7.43;4.07;;;;;;;22.10;46.84;101566.84;5066236;28;20507;-70
2021/04/02 09:00:39;;;;;;;7.38;4.90;;;;;;;22.16;47.15;101569.41;5067552;28;20049;-69
2021/04/02 09:03:07;;;;;;;6.45;4.30;;;;;;;22.26;47.06;101568.28;5067292;28;20120;-70
2021/04/02 09:05:34;;;;;;;7.43;4.50;;;;;;;22.08;46.28;101565.97;5065633;28;20123;-70
2021/04/02 09:08:04;;;;;;;6.75;4.47;;;;;;;21.73;46.14;101557.59;5078201;28;20036;-70
2021/04/02 09:10:31;;;;;;;10.27;4.93;;;;;;;21.65;46.52;101565.84;5087572;28;20036;-70
2021/04/02 09:12:58;;;;;;;6.20;4.30;;;;;;;21.72;46.20;101567.50;5069060;28;20044;-71
2021/04/02 09:15:29;;;;;;;6.75;4.57;;;;;;;21.84;46.28;101567.28;5067515;28;20063;-71
2021/04/02 09:18:14;;;;;;;8.95;4.53;;;;;;;21.60;45.02;101564.09;5066800;28;20047;-72
2021/04/02 09:20:41;;;;;;;13.73;5.00;;;;;;;21.52;45.91;101566.94;5065762;28;20037;-72
2021/04/02 09:23:10;;;;;;;9.88;5.00;;;;;;;21.82;45.80;101568.22;5066285;28;20532;-72
2021/04/02 09:25:39;;;;;;;7.68;4.30;;;;;;;21.83;46.12;101564.63;5066551;28;20051;-73
2021/04/02 09:28:07;;;;;;;7.80;4.25;;;;;;;22.06;45.97;101565.09;5066148;28;20033;-72
2021/04/02 09:30:34;;;;;;;9.98;4.15;;;;;;;22.25;46.17;101563.81;5066507;28;20131;-71
2021/04/02 09:33:01;;;;;;;5.82;3.58;;;;;;;22.42;46.33;101565.31;5066472;28;20041;-71
2021/04/02 09:35:29;;;;;;;6.90;4.10;;;;;;;22.38;45.80;101564.50;5066612;28;20536;-71
2021/04/02 09:37:56;;;;;;;7.93;4.88;;;;;;;22.52;45.81;101556.09;5066552;28;20123;-71
2021/04/02 09:40:29;;;;;;;6.35;4.40;;;;;;;22.75;45.84;101552.97;5065468;28;20492;-71
2021/04/02 09:42:58;;;;;;;7.75;4.15;;;;;;;22.71;45.77;101553.94;5066631;28;20037;-70
2021/04/02 09:45:28;;;;;;;7.55;4.38;;;;;;;22.51;46.07;101551.66;5066552;28;20047;-71
2021/04/02 09:47:55;;;;;;;7.85;4.20;;;;;;;22.61;46.37;101548.75;5066532;28;20118;-71
2021/04/02 09:50:25;;;;;;;6.13;4.03;;;;;;;22.40;45.74;101548.28;5063443;28;20080;-71
2021/04/02 09:52:52;;;;;;;9.48;4.70;;;;;;;22.15;46.22;101545.22;5053173;28;20055;-71
2021/04/02 09:55:20;;;;;;;8.00;4.15;;;;;;;21.85;45.64;101554.72;5058170;28;20140;-70
2021/04/02 09:57:48;;;;;;;6.75;4.15;;;;;;;21.81;46.19;101545.81;5047156;28;20055;-70
2021/04/02 10:00:16;;;;;;;9.55;4.57;;;;;;;21.74;46.45;101545.94;5061390;28;20036;-71
2021/04/02 10:02:43;;;;;;;7.50;4.00;;;;;;;21.87;46.17;101534.94;5052868;28;20112;-70
2021/04/02 10:05:12;;;;;;;7.40;4.18;;;;;;;21.82;46.39;101538.63;5050517;28;20033;-70
2021/04/02 10:07:38;;;;;;;7.78;4.82;;;;;;;21.99;46.72;101541.91;5041911;28;20045;-70
2021/04/02 10:10:07;;;;;;;8.02;5.10;;;;;;;22.33;46.76;101536.78;5048195;28;20443;-70
2021/04/02 10:12:34;;;;;;;6.05;4.45;;;;;;;22.27;46.17;101544.97;5047896;28;20043;-70
2021/04/02 10:15:02;;;;;;;8.32;4.43;;;;;;;22.10;46.10;101539.94;5045135;28;20547;-71
2021/04/02 10:17:29;;;;;;;7.72;3.97;;;;;;;22.08;46.42;101539.06;5036868;28;20041;-70
2021/04/02 10:19:56;;;;;;;9.98;4.47;;;;;;;22.41;46.17;101534.81;5041761;28;20132;-70
2021/04/02 10:22:23;;;;;;;11.57;5.38;;;;;;;22.54;44.83;101528.25;5044348;28;20045;-70
2021/04/02 10:24:50;;;;;;;9.13;4.32;;;;;;;22.29;45.23;101518.94;5043594;28;20033;-70
2021/04/02 10:27:16;;;;;;;6.93;4.18;;;;;;;22.09;45.40;101521.13;5045306;28;20069;-70
2021/04/02 10:29:43;;;;;;;8.00;4.65;;;;;;;21.70;45.24;101533.50;5046194;28;20033;-69
2021/04/02 10:32:12;;;;;;;9.25;4.38;;;;;;;21.24;45.77;101530.69;5039630;28;20390;-69
2021/04/02 10:34:38;;;;;;;8.65;4.13;;;;;;;21.24;46.26;101534.25;5045168;28;20481;-69
2021/04/02 10:37:05;;;;;;;8.90;4.60;;;;;;;21.03;46.31;101532.75;5040752;28;20041;-70
2021/04/02 10:39:33;;;;;;;10.68;4.47;;;;;;;20.97;46.51;101534.66;5048345;28;20121;-70
2021/04/02 10:42:00;;;;;;;7.50;4.40;;;;;;;20.93;46.35;101527.56;5048007;28;20440;-70
2021/04/02 10:44:27;;;;;;;5.45;3.80;;;;;;;21.09;46.62;101523.72;5048010;28;20072;-70
2021/04/02 10:46:55;;;;;;;7.38;3.90;;;;;;;21.11;46.42;101529.97;5050668;28;20037;-70
2021/04/02 10:49:23;;;;;;;8.18;3.97;;;;;;;21.01;46.30;101526.50;5051778;28;20449;-70
2021/04/02 10:51:51;;;;;;;5.25;3.58;;;;;;;20.94;46.38;101529.31;5049643;28;20044;-70
2021/04/02 10:54:18;;;;;;;6.68;3.95;;;;;;;20.95;46.72;101525.72;5051389;28;20049;-70
2021/04/02 10:56:45;;;;;;;6.65;3.78;;;;;;;20.99;46.23;101522.09;5049488;28;20041;-70
2021/04/02 10:59:13;;;;;;;7.30;4.00;;;;;;;21.16;46.35;101520.06;5051346;28;20033;-70
2021/04/02 11:01:40;;;;;;;5.68;3.72;;;;;;;21.45;46.29;101512.44;5046251;28;20041;-70
2021/04/02 11:04:07;;;;;;;9.15;4.10;;;;;;;21.68;45.67;101522.75;5044641;28;20091;-70
2021/04/02 11:06:35;;;;;;;8.95;4.40;;;;;;;21.79;45.27;101509.13;5044183;28;20072;-70
2021/04/02 11:09:03;;;;;;;11.48;4.22;;;;;;;22.02;45.42;101520.38;5036060;28;20045;-71
2021/04/02 11:11:30;;;;;;;6.22;3.70;;;;;;;22.02;45.16;101520.38;5049419;28;20128;-70
2021/04/02 11:13:57;;;;;;;7.40;4.15;;;;;;;21.92;44.25;101515.16;5050244;28;20033;-70
2021/04/02 11:16:24;;;;;;;7.60;3.88;;;;;;;21.78;44.41;101510.03;5039128;28;20038;-69
2021/04/02 11:18:51;;;;;;;6.45;3.80;;;;;;;21.77;44.50;101510.97;5042376;28;20049;-70
2021/04/02 11:21:19;;;;;;;8.50;4.28;;;;;;;22.10;44.77;101506.78;5036622;28;20112;-70
2021/04/02 11:23:47;;;;;;;7.97;4.00;;;;;;;22.33;44.83;101495.53;5037393;28;20449;-69
2021/04/02 11:26:14;;;;;;;7.95;4.00;;;;;;;22.43;43.60;101499.81;5034359;28;20551;-70
2021/04/02 11:28:41;;;;;;;6.97;3.85;;;;;;;22.24;43.20;101507.38;5037994;28;20052;-70
2021/04/02 11:31:08;;;;;;;7.20;4.10;;;;;;;22.44;42.93;101496.19;5035450;28;20072;-70
2021/04/02 11:33:36;;;;;;;8.80;3.75;;;;;;;22.35;43.10;101493.69;5042737;28;20049;-70
2021/04/02 11:36:03;;;;;;;7.32;3.85;;;;;;;22.32;43.08;101496.47;5036023;28;20041;-70
2021/04/02 11:38:30;;;;;;;8.27;3.88;;;;;;;22.27;42.41;101499.22;5051952;28;20037;-70
2021/04/02 11:40:59;;;;;;;7.88;4.72;;;;;;;22.55;42.55;101494.16;5032405;28;20033;-70
2021/04/02 11:43:26;;;;;;;6.32;3.97;;;;;;;22.77;42.63;101490.09;5034798;28;20047;-70
2021/04/02 11:45:53;;;;;;;49.15;22.38;;;;;;;23.01;42.15;101480.56;5045720;28;20033;-70
2021/04/02 11:48:20;;;;;;;13.85;6.05;;;;;;;23.10;41.87;101477.66;5045466;28;20029;-70
2021/04/02 11:50:47;;;;;;;6.13;4.00;;;;;;;23.43;41.92;101467.81;5050435;28;20135;-70
2021/04/02 11:53:14;;;;;;;6.22;4.10;;;;;;;23.81;41.76;101478.50;5033127;28;20044;-70
2021/04/02 11:55:41;;;;;;;8.05;4.80;;;;;;;24.11;41.40;101468.63;5027121;28;20051;-70
2021/04/02 11:58:10;;;;;;;9.55;5.55;;;;;;;24.17;40.77;101481.94;5024023;28;20238;-70
2021/04/02 12:00:37;;;;;;;7.57;3.95;;;;;;;24.10;40.71;101472.25;5028753;28;20060;-69
2021/04/02 12:03:05;;;;;;;7.38;4.38;;;;;;;24.75;39.58;101476.63;5044290;28;20033;-70
2021/04/02 12:05:31;;;;;;;7.20;4.57;;;;;;;24.12;40.07;101475.81;5050043;28;20116;-70
2021/04/02 12:07:59;;;;;;;8.63;5.05;;;;;;;23.75;40.36;101467.88;5045031;28;20036;-71
2021/04/02 12:10:26;;;;;;;9.60;5.50;;;;;;;23.63;40.48;101460.09;5033738;28;20045;-71
2021/04/02 12:12:53;;;;;;;6.60;4.38;;;;;;;23.44;41.09;101456.09;5045989;28;20051;-71
2021/04/02 12:15:21;;;;;;;7.57;3.67;;;;;;;23.36;40.77;101460.81;5030778;28;20034;-70
2021/04/02 12:17:48;;;;;;;7.22;3.42;;;;;;;23.58;41.02;101458.44;5045900;28;20052;-71
2021/04/02 12:20:18;;;;;;;9.30;3.72;;;;;;;24.05;40.42;101465.22;5033406;28;20053;-70
2021/04/02 12:22:45;;;;;;;7.22;3.60;;;;;;;23.76;40.68;101458.81;5034282;28;20045;-70
2021/04/02 12:25:15;;;;;;;6.38;4.07;;;;;;;23.94;40.51;101453.88;5041502;28;20553;-70
2021/04/02 12:27:42;;;;;;;9.68;5.15;;;;;;;23.83;40.67;101448.75;5051190;28;20065;-70
2021/04/02 12:30:12;;;;;;;5.75;4.10;;;;;;;23.96;41.02;101450.19;5049117;28;20037;-70
2021/04/02 12:32:40;;;;;;;7.20;4.45;;;;;;;24.04;41.04;101455.34;5041225;28;20463;-68
2021/04/02 12:35:09;;;;;;;7.07;4.70;;;;;;;24.00;40.61;101448.28;5037401;28;20041;-71
2021/04/02 12:37:37;;;;;;;6.65;4.03;;;;;;;23.91;40.34;101452.13;5039698;28;20044;-70
2021/04/02 12:40:10;;;;;;;9.10;4.90;;;;;;;23.99;39.46;101454.63;5050664;28;20033;-70